Weather

Rainfall Maps have ended for the season and will begin again on May 1st.

DAILY 7 DAY TOTAL
onrain

Note: Some stations are located near irrigated fields and may also report irrigation

Alliston Mount Forest Blyth Guelph Grand Bend Strathroy Woodstock Belmont Simcoe Leamington Chatham West Lorne






Grand Bend - Historical Weather Data
Date Max Temp (°C) Min Temp (°C) Avg Temp (°C) Rain (mm) 7Day Rain(mm) Total Rain(mm) Avg RH (%)
10/31/2017 6.5 2.8 4.3 0.4 15.6 489.2 78.8
10/30/2017 6.8 3.4 5.1 1.2 19.0 488.8 81.3
10/29/2017 10.8 3.7 6.2 0.8 25.6 487.6 82.6
10/28/2017 8.9 3.7 5.4 2.8 24.8 486.8 89.2
10/27/2017 17.5 0.6 9.1 8.6 22.0 484.0 83.7
10/26/2017 13.7 -1.8 4.5 0.0 13.4 475.4 85.4
10/25/2017 10.3 1.2 5.8 1.8 13.4 475.4 89.9
10/24/2017 14.6 6.6 10.7 3.8 11.6 473.6 84.3
10/23/2017 20.2 14.8 17.2 7.8 7.8 469.8 79.2
10/22/2017 25.6 6.3 17.3 0.0 1.8 462.0 70.6
10/21/2017 24.4 5.1 14.4 0.0 16.0 462.0 77.8
10/20/2017 23.5 1.4 11.7 0.0 27.6 462.0 69.6
10/19/2017 20.2 4.1 12.7 0.0 27.6 462.0 74.2
10/18/2017 21.2 7.0 13.6 0.0 27.6 462.0 68.8
10/17/2017 20.3 -0.4 10.4 0.0 55.0 462.0 77.2
10/16/2017 14.1 1.2 8.1 1.8 55.0 462.0 79.3
10/15/2017 22.5 8.4 15.7 14.2 62.4 460.2 91.0
10/14/2017 19.3 12.6 15.4 11.6 50.8 446.0 96.4
10/13/2017 22.3 12.1 16.3 0.0 42.6 434.4 86.0
10/12/2017 15.0 7.1 11.6 0.0 43.0 434.4 91.1
10/11/2017 11.5 7.9 9.8 27.4 43.0 434.4 92.4
10/10/2017 20.8 8.7 13.9 0.0 15.6 407.0 84.4
10/9/2017 24.7 10.5 17.1 9.2 15.6 407.0 88.2
10/8/2017 25.7 14.9 19.1 2.6 6.4 397.8 78.4
10/7/2017 27.6 16.8 21.5 3.4 3.8 395.2 79.2
10/6/2017 21.7 13.0 16.2 0.4 0.4 391.8 86.4
10/5/2017 24.4 7.0 15.4 0.0 2.8 391.4 80.0
10/4/2017 25.7 11.7 20.9 0.0 2.8 391.4 77.1
10/3/2017 28.2 5.3 17.9 0.0 2.8 391.4 67.0
10/2/2017 25.0 1.1 11.9 0.0 2.8 391.4 73.9
10/1/2017 21.9 -0.5 9.5 0.0 2.8 391.4 76.8
9/30/2017 18.6 2.8 10.7 0.0 2.8 391.4 75.2
9/29/2017 19.0 5.2 11.9 2.8 2.8 391.4 86.3
9/28/2017 20.1 5.6 13.5 0.0 0.0 388.6 76.0
9/27/2017 24.5 15.6 19.6 0.0 0.0 388.6 83.1
9/26/2017 33.9 16.1 23.3 0.0 0.2 388.6 78.6
9/25/2017 33.6 13.7 22.1 0.0 10.8 388.6 80.0
9/24/2017 33.7 13.8 22.3 0.0 13.0 388.6 80.6
9/23/2017 33.0 15.2 23.0 0.0 13.0 388.6 78.5
9/22/2017 32.8 14.5 22.5 0.0 13.2 388.6 79.0
9/21/2017 31.7 12.9 21.9 0.0 13.2 388.6 79.8
9/20/2017 30.1 16.8 21.2 0.2 13.2 388.6 89.1
9/19/2017 22.3 15.9 18.8 10.6 13.0 388.4 97.9
9/18/2017 21.2 16.3 18.0 2.2 2.4 377.8 96.5
9/17/2017 29.8 10.8 19.8 0.0 0.2 375.6 81.0
9/16/2017 28.3 10.1 18.7 0.2 0.2 375.6 83.3
9/15/2017 27.4 9.7 18.2 0.0 0.0 375.4 84.4
9/14/2017 27.4 11.1 18.7 0.0 4.4 375.4 84.2
9/13/2017 27.7 5.5 16.2 0.0 16.2 375.4 86.3
9/12/2017 25.9 4.1 14.1 0.0 16.4 375.4 83.3
9/11/2017 24.5 2.8 12.8 0.0 19.0 375.4 84.7
9/10/2017 22.1 1.8 11.2 0.0 28.6 375.4 83.1
9/9/2017 20.0 1.7 10.1 0.0 30.0 375.4 81.5
9/8/2017 19.2 4.7 13.0 4.4 37.6 375.4 84.5
9/7/2017 20.1 7.4 12.8 11.8 33.2 371.0 91.5
9/6/2017 21.5 7.5 13.8 0.2 22.8 359.2 84.8
9/5/2017 21.5 10.7 15.2 2.6 22.6 359.0 90.4
9/4/2017 25.9 12.2 17.7 9.6 21.2 356.4 85.6
9/3/2017 22.3 13.1 16.4 1.4 13.8 346.8 88.4
9/2/2017 25.1 0.6 12.9 7.6 12.4 345.4 76.2
9/1/2017 19.9 2.2 10.8 0.0 4.8 337.8 81.9
8/31/2017 21.2 6.7 15.9 1.4 4.8 337.8 80.3
8/30/2017 26.8 11.7 18.4 0.0 3.4 336.4 86.7
8/29/2017 25.1 13.7 19.0 1.2 3.4 336.4 81.3
8/28/2017 25.1 12.9 18.3 2.2 6.2 335.2 82.4
8/27/2017 25.0 5.1 15.1 0.0 4.0 333.0 78.0
8/26/2017 23.5 2.0 12.6 0.0 4.0 333.0 80.4
8/25/2017 23.8 4.7 13.3 0.0 4.0 333.0 81.3
8/24/2017 21.8 9.9 15.2 0.0 4.0 333.0 84.5
8/23/2017 22.6 11.8 17.4 0.0 56.4 333.0 81.3
8/22/2017 26.2 17.2 21.8 4.0 56.4 333.0 87.0
8/21/2017 32.4 13.6 23.0 0.0 57.4 329.0 80.2
8/20/2017 30.1 12.3 20.8 0.0 57.4 329.0 80.4
8/19/2017 24.8 13.9 19.2 0.0 57.4 329.0 84.9
8/18/2017 25.6 18.6 21.2 0.0 57.4 329.0 87.3
8/17/2017 24.4 14.5 19.9 52.4 59.0 329.0 93.0
8/16/2017 29.1 9.5 19.4 0.0 6.6 276.6 80.5
8/15/2017 27.0 12.8 19.5 5.0 6.6 276.6 88.2
8/14/2017 28.5 11.1 20.1 0.0 1.6 271.6 74.1
8/13/2017 27.7 9.4 18.5 0.0 2.0 271.6 79.2
8/12/2017 25.5 13.3 19.1 0.0 3.2 271.6 88.9
8/11/2017 25.3 13.5 19.4 1.6 3.2 271.6 90.7
8/10/2017 30.3 11.0 20.4 0.0 2.0 270.0 76.1
8/9/2017 30.1 11.0 20.9 0.0 20.2 270.0 77.1
8/8/2017 27.2 7.9 18.1 0.0 20.2 270.0 80.2
8/7/2017 24.7 11.2 17.2 0.4 20.2 270.0 91.6
8/6/2017 27.0 7.7 17.4 1.2 19.8 269.6 82.7
8/5/2017 24.5 10.9 17.5 0.0 18.6 268.4 78.0
8/4/2017 25.9 16.4 20.3 0.4 18.6 268.4 83.1
8/3/2017 30.0 13.8 20.3 18.2 18.2 268.0 89.4
8/2/2017 31.7 15.5 22.4 0.0 2.2 249.8 79.1
8/1/2017 30.9 12.9 22.0 0.0 2.2 249.8 79.5
7/31/2017 30.8 12.8 21.7 0.0 2.2 249.8 80.1
7/30/2017 28.8 11.8 20.2 0.0 2.2 249.8 77.0
7/29/2017 27.6 8.4 18.2 0.0 3.8 249.8 78.3
7/28/2017 25.2 11.7 18.0 0.0 11.2 249.8 80.9
7/27/2017 26.9 16.4 21.1 2.2 11.2 249.8 89.0
7/26/2017 26.4 12.3 19.7 0.0 16.8 247.6 83.3
7/25/2017 26.7 12.3 19.4 0.0 16.8 247.6 79.4
7/24/2017 19.1 16.4 17.7 0.0 16.8 247.6 86.0
7/23/2017 29.4 16.8 22.0 1.6 16.8 247.6 82.2
7/22/2017 24.7 19.0 21.0 7.4 16.0 246.0 92.0
7/21/2017 29.3 17.0 23.0 0.0 8.6 238.6 80.9
7/20/2017 30.5 14.9 22.7 7.8 8.6 238.6 84.9
7/19/2017 28.3 16.0 21.5 0.0 25.0 230.8 82.5
7/18/2017 30.1 9.8 21.0 0.0 25.6 230.8 75.8
7/17/2017 24.4 12.7 19.5 0.0 25.8 230.8 83.8
7/16/2017 25.2 15.0 19.8 0.8 33.2 230.8 87.8
7/15/2017 27.2 17.0 21.5 0.0 32.4 230.0 73.6
7/14/2017 25.2 18.1 21.0 0.0 32.4 230.0 86.6
7/13/2017 29.3 19.5 23.8 24.2 39.4 230.0 91.1
7/12/2017 26.6 18.1 23.0 0.6 15.2 205.8 89.8
7/11/2017 30.1 13.8 22.1 0.2 14.6 205.2 83.1
7/10/2017 24.3 17.1 19.9 7.4 14.4 205.0 85.8
7/9/2017 27.8 11.5 20.7 0.0 7.0 197.6 65.5
7/8/2017 23.4 12.3 19.4 0.0 7.0 197.6 73.1
7/7/2017 29.0 16.7 21.9 7.0 10.2 197.6 81.8
7/6/2017 32.0 11.7 22.4 0.0 7.0 190.6 66.8
7/5/2017 28.8 10.0 19.9 0.0 8.8 190.6 68.9
7/4/2017 25.4 8.7 18.1 0.0 11.0 190.6 76.2
7/3/2017 23.4 11.6 18.2 0.0 13.2 190.6 79.1
7/2/2017 27.9 12.0 20.6 0.0 13.2 190.6 76.2
7/1/2017 26.8 15.8 21.2 3.2 15.6 190.6 85.6
6/30/2017 30.1 19.3 23.3 3.8 13.4 187.4 81.9
6/29/2017 29.1 15.3 22.1 1.8 33.8 183.6 74.5
6/28/2017 26.0 10.8 18.5 2.2 33.6 181.8 67.1
6/27/2017 22.6 9.6 15.8 2.2 31.6 179.6 73.6
6/26/2017 21.1 10.6 16.4 0.0 31.4 177.4 74.0
6/25/2017 20.6 12.3 16.5 2.4 40.4 177.4 76.7
6/24/2017 24.5 14.1 18.3 1.0 38.2 175.0 79.2
6/23/2017 26.2 16.4 20.4 24.2 44.8 174.0 93.6
6/22/2017 28.1 11.1 20.2 1.6 20.8 149.8 79.1
6/21/2017 22.6 11.2 17.0 0.2 21.8 148.2 79.5
6/20/2017 24.1 12.8 16.9 2.0 21.6 148.0 85.9
6/19/2017 26.3 14.8 19.6 9.0 19.6 146.0 74.4
6/18/2017 29.0 17.5 23.5 0.2 10.6 137.0 74.9
6/17/2017 28.4 18.8 22.5 7.6 10.4 136.8 79.1
6/16/2017 31.2 17.1 24.2 0.2 2.8 129.2 66.9
6/15/2017 27.8 17.0 20.9 2.6 2.6 129.0 70.3
6/14/2017 29.4 14.3 22.3 0.0 0.0 126.4 60.0
6/13/2017 27.2 15.2 21.5 0.0 0.0 126.4 69.9
6/12/2017 34.4 20.6 27.0 0.0 0.0 126.4 54.7
6/11/2017 33.2 20.6 26.6 0.0 0.0 126.4 49.6
6/10/2017 32.0 11.5 22.8 0.0 13.2 126.4 59.4
6/9/2017 25.1 13.7 18.7 0.0 13.2 126.4 62.1
6/8/2017 24.5 6.5 17.0 0.0 13.2 126.4 60.5
6/7/2017 20.5 7.1 14.6 0.0 13.2 126.4 69.4
6/6/2017 14.9 10.9 12.8 0.0 13.2 126.4 90.3
6/5/2017 15.3 11.2 12.7 0.0 13.2 126.4 94.9
6/4/2017 28.1 13.7 19.0 13.2 16.0 126.4 78.3
6/3/2017 24.3 8.5 17.2 0.0 2.8 113.2 54.4
6/2/2017 22.4 8.2 15.4 0.0 3.0 113.2 52.5
6/1/2017 22.2 8.0 14.9 0.0 3.0 113.2 57.3
5/31/2017 23.6 11.1 16.6 0.0 18.2 113.2 60.6
5/30/2017 24.1 10.7 17.8 0.0 22.8 113.2 62.8
5/29/2017 26.7 14.2 19.9 2.8 22.8 113.2 66.9
5/28/2017 28.3 9.4 18.4 0.0 20.0 110.4 74.9
5/27/2017 21.8 7.1 14.8 0.2 42.2 110.4 81.4
5/26/2017 15.0 8.3 11.1 0.0 42.0 110.2 97.9
5/25/2017 15.1 11.4 13.7 15.2 42.0 110.2 96.3
5/24/2017 21.4 11.1 15.7 4.6 26.8 95.0 81.9
5/23/2017 23.6 8.5 16.1 0.0 22.2 90.4 72.3
5/22/2017 19.9 10.8 14.6 0.0 29.2 90.4 70.0
5/21/2017 20.2 10.4 15.4 22.2 29.2 90.4 88.7
5/20/2017 21.3 5.6 13.1 0.0 7.2 68.2 49.8
5/19/2017 13.0 5.2 8.0 0.0 8.4 68.2 81.7
5/18/2017 31.0 13.7 24.7 0.0 8.4 68.2 52.6
5/17/2017 30.9 15.0 23.7 0.0 9.2 68.2 58.1
5/16/2017 24.1 4.5 14.8 7.0 9.2 68.2 72.3
5/15/2017 18.1 2.6 10.5 0.0 2.2 61.2 65.4
5/14/2017 11.8 3.4 9.3 0.2 2.2 61.2 81.0
5/13/2017 19.1 1.3 10.4 1.2 2.0 61.0 74.4
5/12/2017 18.3 1.4 10.1 0.0 1.0 59.8 68.5
5/11/2017 17.7 5.5 10.6 0.8 18.6 59.8 64.3
5/10/2017 18.9 2.3 10.4 0.0 40.2 59.0 61.8
5/9/2017 13.1 -3.7 6.1 0.0 40.2 59.0 63.1
5/8/2017 11.0 -0.9 5.2 0.0 40.6 59.0 65.8
5/7/2017 7.0 1.2 5.1 0.0 59.0 59.0 69.0
5/6/2017 6.8 5.2 5.8 0.2 68.8 59.0 87.4
5/5/2017 8.3 5.7 6.5 17.6 68.6 58.8 94.0
5/4/2017 9.1 2.5 6.1 22.4 51.0 41.2 89.9
5/3/2017 12.4 3.2 7.4 0.0 29.2 18.8 71.4
5/2/2017 9.5 5.1 8.2 0.4 29.2 18.8 81.0
5/1/2017 19.8 7.8 13.1 18.4 33.2 18.4 88.7